TAF LFBY
METAR LFBY
LFBY 080430Z AUTO 23007KT 9999 // ////// 07/05 Q1006=
LFBY 080400Z AUTO 25006KT 220V280 9999 // ////// 07/05 Q1006=
LFBY 080330Z AUTO 27011KT 210V330 8000 // FEW021/// SCT036/// BKN046/// ///CB 08/06 Q1006=
LFBY 080300Z AUTO 24006KT 9999 // FEW030/// SCT045/// ///CB 07/06 Q1007=
LFBY 080230Z AUTO 27004KT 220V310 9999 // FEW034/// ///CB 08/06 Q1006=
WC LFBY
WS LFBY
WV LFBY